OTBDOISS

Guest
Details From OTBD - Doha Intl
To OISS - Shiraz Shahid Dastghaib Intl
Flight Number -
Tags Generated
Created
Modified
Stats Distance 263 nm / 487 km
Max Altitude 0 ft / 0 m
Waypoints 3
Social Downloads 2
Likes 0
Share VATSIM

Download

Looking for another format? Having issues loading an existing format? Contact us
Advertisement - Login to hide

Notes

Generated

Route

OTBD SYZ OISS

ID Type Via Altitude Latitude Longitude Leg Dist Tot Dist Heading (true) Name
O OTBD APT - 0 ft / 0 m 25.28022˚ 51.55653˚ - 0 nm - -
SYZ VOR - 0 ft / 0 m 29.54017˚ 52.58878˚ 261 nm 261 nm 12° / 12° SHIRAZ SHAHID DASTGHAIB VOR-DM
O OISS APT - 0 ft / 0 m 29.54534˚ 52.56881˚ 1 nm 262 nm 287° / 287° -

Altitude Profile

Advertisement - Login to hide

Weather


0- 5 10 15 20 25 30 35+ Temperature / ° C

Clouds and Precipitation
Forecast for 2018-05-24 18:00 UTC. Updated 3 hours ago

Ground ~20,000 ft ~40,000 ft Winds

OTBD

Details ICAO OTBD (DOH)
Name DOHA INTL
Region Qatar
Timezone Asia/Qatar (UTC+3.0)
Stats Elevation 35 ft / 11 m (AMSL)
Location 25.261056° 51.564999°
Runways 1
Magnetic Variation 2.501° E

METAR

OTBD 242000Z 36003KT CAVOK 29/21 Q1004 NOSIG

Decode

TAF

TAF OTBD 241909Z 2418/2524 03005KT CAVOK TEMPO 2418/2423 VRB03KT BECMG 2423/2501 11008KT

Decode

Departure Runways

ID Width Length Bearing (true) Bearing (mag) Surface Threshold Offset Overrun Length
16 151 ft / 46 m 15,065 ft / 4,592 m 158.20° 155.70° Asphalt 2,460 ft / 750 m 98 ft / 30 m
34 151 ft / 46 m 15,065 ft / 4,592 m 338.21° 335.71° Asphalt 0 ft / 0 m 460 ft / 140 m

OISS

Details ICAO OISS (SYZ)
Name SHIRAZ SHAHID DASTGHAIB INTL
Region Iran
Timezone Asia/Tehran (UTC+4.5)
Stats Elevation 4,920 ft / 1,500 m (AMSL)
Location 29.539241° 52.589784°
Runways 2
Magnetic Variation 3.182° E

METAR

OISS 242000Z 29004KT CAVOK 23/00 Q1015 A2999

Decode

TAF

TAF OISS 241730Z 2418/2524 22004MPS 8000 SCT040 TEMPO 2510/2514 FEW035TCU SCT040 BKN100

Decode

Destination Runways

ID Width Length Bearing (true) Bearing (mag) Surface Threshold Offset Overrun Length
11L 148 ft / 45 m 14,334 ft / 4,369 m 114.53° 111.35° Asphalt 0 ft / 0 m 1,444 ft / 440 m
11R 148 ft / 45 m 14,040 ft / 4,279 m 114.41° 111.23° Asphalt 0 ft / 0 m 1,000 ft / 305 m
29L 148 ft / 45 m 14,040 ft / 4,279 m 294.42° 291.24° Asphalt 0 ft / 0 m 1,000 ft / 305 m
29R 148 ft / 45 m 14,334 ft / 4,369 m 294.56° 291.38° Asphalt 0 ft / 0 m 1,148 ft / 350 m

Approach Navaids

Runway Type Ident Frequency Range Bearing (true) Bearing (mag) Slope Elevation
29L Localiser ISYZ 109.90 MHz 18 nm / 33 km 294.40° 291.22° - 4,933 ft / 1,504 m (AMSL)
29L Glidescope ISYZ 109.90 MHz 10 nm / 19 km 294.42° 291.23° 3.00° 4,864 ft / 1,483 m (AMSL)
29L DME ISYZ 109.90 MHz 18 nm / 33 km - - - 4,868 ft / 1,484 m (AMSL)

Popular Alternatives